sensor_id;sensor_type;location;lat;lon;timestamp;pressure;altitude;pressure_sealevel;temperature;humidity
85462;BME280;75865;42.672;23.360;2024-03-08T00:00:11;95159.94;;;7.69;71.13
85462;BME280;75865;42.672;23.360;2024-03-08T00:02:41;95152.41;;;7.64;71.52
85462;BME280;75865;42.672;23.360;2024-03-08T00:05:11;95152.41;;;7.64;71.75
85462;BME280;75865;42.672;23.360;2024-03-08T00:07:39;95162.97;;;7.71;71.56
85462;BME280;75865;42.672;23.360;2024-03-08T00:10:07;95158.81;;;7.70;71.66
85462;BME280;75865;42.672;23.360;2024-03-08T00:12:44;95163.41;;;7.77;71.45
85462;BME280;75865;42.672;23.360;2024-03-08T00:15:13;95167.56;;;7.81;71.09
85462;BME280;75865;42.672;23.360;2024-03-08T00:17:43;95168.31;;;7.85;71.25
85462;BME280;75865;42.672;23.360;2024-03-08T00:20:10;95158.88;;;7.84;71.10
85462;BME280;75865;42.672;23.360;2024-03-08T00:22:38;95161.91;;;7.86;70.77
85462;BME280;75865;42.672;23.360;2024-03-08T00:25:06;95157.03;;;7.88;71.16
85462;BME280;75865;42.672;23.360;2024-03-08T00:27:37;95153.25;;;7.89;71.32
85462;BME280;75865;42.672;23.360;2024-03-08T00:30:05;95148.31;;;7.91;71.30
85462;BME280;75865;42.672;23.360;2024-03-08T00:32:33;95146.47;;;7.95;70.91
85462;BME280;75865;42.672;23.360;2024-03-08T00:35:00;95141.94;;;7.96;70.59
85462;BME280;75865;42.672;23.360;2024-03-08T00:37:26;95142.69;;;7.96;70.77
85462;BME280;75865;42.672;23.360;2024-03-08T00:39:53;95141.19;;;7.95;70.57
85462;BME280;75865;42.672;23.360;2024-03-08T00:42:20;95146.47;;;7.95;70.78
85462;BME280;75865;42.672;23.360;2024-03-08T00:44:47;95143.44;;;7.97;70.75
85462;BME280;75865;42.672;23.360;2024-03-08T00:47:18;95141.97;;;8.00;70.73
85462;BME280;75865;42.672;23.360;2024-03-08T00:49:45;95139.69;;;8.02;70.96
85462;BME280;75865;42.672;23.360;2024-03-08T00:52:14;95132.50;;;7.98;71.08
85462;BME280;75865;42.672;23.360;2024-03-08T00:54:41;95141.19;;;7.99;71.19
85462;BME280;75865;42.672;23.360;2024-03-08T00:57:11;95132.50;;;7.98;71.23
85462;BME280;75865;42.672;23.360;2024-03-08T00:59:38;95127.59;;;7.97;70.47
85462;BME280;75865;42.672;23.360;2024-03-08T01:02:05;95123.41;;;7.92;69.96
85462;BME280;75865;42.672;23.360;2024-03-08T01:04:32;95123.41;;;7.85;70.23
85462;BME280;75865;42.672;23.360;2024-03-08T01:07:00;95126.41;;;7.84;70.00
85462;BME280;75865;42.672;23.360;2024-03-08T01:09:27;95113.56;;;7.75;70.04
85462;BME280;75865;42.672;23.360;2024-03-08T01:11:54;95123.75;;;7.73;69.92
85462;BME280;75865;42.672;23.360;2024-03-08T01:14:24;95112.41;;;7.69;70.48
85462;BME280;75865;42.672;23.360;2024-03-08T01:16:55;95117.28;;;7.64;70.04
85462;BME280;75865;42.672;23.360;2024-03-08T01:19:22;95114.25;;;7.61;70.85
85462;BME280;75865;42.672;23.360;2024-03-08T01:21:50;95124.44;;;7.59;70.54
85462;BME280;75865;42.672;23.360;2024-03-08T01:24:17;95113.84;;;7.56;71.32
85462;BME280;75865;42.672;23.360;2024-03-08T01:26:44;95107.44;;;7.57;70.88
85462;BME280;75865;42.672;23.360;2024-03-08T01:29:11;95108.97;;;7.58;71.20
85462;BME280;75865;42.672;23.360;2024-03-08T01:31:38;95108.97;;;7.58;71.21
85462;BME280;75865;42.672;23.360;2024-03-08T01:34:05;95098.03;;;7.59;71.34
85462;BME280;75865;42.672;23.360;2024-03-08T01:36:31;95103.31;;;7.63;71.75
85462;BME280;75865;42.672;23.360;2024-03-08T01:38:58;95104.06;;;7.67;71.91
85462;BME280;75865;42.672;23.360;2024-03-08T01:41:25;95101.09;;;7.72;71.72
85462;BME280;75865;42.672;23.360;2024-03-08T01:43:52;95098.84;;;7.74;71.78
85462;BME280;75865;42.672;23.360;2024-03-08T01:46:21;95099.97;;;7.73;71.46
85462;BME280;75865;42.672;23.360;2024-03-08T01:48:49;95102.59;;;7.73;71.39
85462;BME280;75865;42.672;23.360;2024-03-08T01:51:18;95101.88;;;7.76;71.07
85462;BME280;75865;42.672;23.360;2024-03-08T01:53:46;95106.41;;;7.76;71.11
85462;BME280;75865;42.672;23.360;2024-03-08T01:56:14;95089.03;;;7.75;71.01
85462;BME280;75865;42.672;23.360;2024-03-08T01:58:44;95094.28;;;7.68;70.36
85462;BME280;75865;42.672;23.360;2024-03-08T02:01:12;95098.44;;;7.72;70.53
85462;BME280;75865;42.672;23.360;2024-03-08T02:03:42;95094.31;;;7.75;70.01
85462;BME280;75865;42.672;23.360;2024-03-08T02:06:13;95092.44;;;7.75;69.84
85462;BME280;75865;42.672;23.360;2024-03-08T02:08:43;95096.56;;;7.73;69.89
85462;BME280;75865;42.672;23.360;2024-03-08T02:11:11;95087.50;;;7.74;69.42
85462;BME280;75865;42.672;23.360;2024-03-08T02:13:38;95090.91;;;7.74;69.72
85462;BME280;75865;42.672;23.360;2024-03-08T02:16:05;95085.25;;;7.72;69.55
85462;BME280;75865;42.672;23.360;2024-03-08T02:18:34;95089.78;;;7.75;69.80
85462;BME280;75865;42.672;23.360;2024-03-08T02:21:04;95097.34;;;7.77;68.98
85462;BME280;75865;42.672;23.360;2024-03-08T02:23:32;95099.63;;;7.78;69.17
85462;BME280;75865;42.672;23.360;2024-03-08T02:26:00;95088.66;;;7.76;69.20
85462;BME280;75865;42.672;23.360;2024-03-08T02:28:27;95101.50;;;7.81;69.48
85462;BME280;75865;42.672;23.360;2024-03-08T02:30:54;95102.25;;;7.82;69.55
85462;BME280;75865;42.672;23.360;2024-03-08T02:33:23;95107.53;;;7.82;69.47
85462;BME280;75865;42.672;23.360;2024-03-08T02:35:50;95098.88;;;7.85;68.87
85462;BME280;75865;42.672;23.360;2024-03-08T02:38:19;95108.69;;;7.84;68.26
85462;BME280;75865;42.672;23.360;2024-03-08T02:40:48;95111.72;;;7.86;67.66
85462;BME280;75865;42.672;23.360;2024-03-08T02:43:17;95115.09;;;7.87;67.75
85462;BME280;75865;42.672;23.360;2024-03-08T02:45:44;95114.72;;;7.85;67.51
85462;BME280;75865;42.672;23.360;2024-03-08T02:48:12;95117.34;;;7.81;67.73
85462;BME280;75865;42.672;23.360;2024-03-08T02:50:40;95118.09;;;7.78;67.61
85462;BME280;75865;42.672;23.360;2024-03-08T02:53:09;95106.75;;;7.74;67.09
85462;BME280;75865;42.672;23.360;2024-03-08T02:55:40;95112.41;;;7.73;67.40
85462;BME280;75865;42.672;23.360;2024-03-08T02:58:08;95112.00;;;7.67;67.56
85462;BME280;75865;42.672;23.360;2024-03-08T03:00:38;95114.28;;;7.65;67.37
85462;BME280;75865;42.672;23.360;2024-03-08T03:03:08;95110.13;;;7.64;67.35
85462;BME280;75865;42.672;23.360;2024-03-08T03:05:35;95105.59;;;7.61;66.21
85462;BME280;75865;42.672;23.360;2024-03-08T03:08:02;95112.34;;;7.58;66.12
85462;BME280;75865;42.672;23.360;2024-03-08T03:10:36;95110.44;;;7.55;65.52
85462;BME280;75865;42.672;23.360;2024-03-08T03:13:04;95118.75;;;7.57;65.38
85462;BME280;75865;42.672;23.360;2024-03-08T03:15:31;95108.22;;;7.54;64.67
85462;BME280;75865;42.672;23.360;2024-03-08T03:18:00;95122.94;;;7.55;65.07
85462;BME280;75865;42.672;23.360;2024-03-08T03:20:27;95119.91;;;7.60;65.26
85462;BME280;75865;42.672;23.360;2024-03-08T03:22:59;95119.88;;;7.56;64.04
85462;BME280;75865;42.672;23.360;2024-03-08T03:25:28;95125.97;;;7.60;64.72
85462;BME280;75865;42.672;23.360;2024-03-08T03:28:02;95124.44;;;7.59;64.51
85462;BME280;75865;42.672;23.360;2024-03-08T03:30:31;95126.31;;;7.59;64.86
85462;BME280;75865;42.672;23.360;2024-03-08T03:33:00;95133.16;;;7.64;65.16
85462;BME280;75865;42.672;23.360;2024-03-08T03:35:28;95132.38;;;7.63;64.42
85462;BME280;75865;42.672;23.360;2024-03-08T03:37:58;95132.00;;;7.61;64.03
85462;BME280;75865;42.672;23.360;2024-03-08T03:40:36;95137.66;;;7.63;63.83
85462;BME280;75865;42.672;23.360;2024-03-08T03:43:03;95135.75;;;7.53;63.48
85462;BME280;75865;42.672;23.360;2024-03-08T03:45:30;95139.47;;;7.45;64.61
85462;BME280;75865;42.672;23.360;2024-03-08T03:48:05;95146.28;;;7.49;64.36
85462;BME280;75865;42.672;23.360;2024-03-08T03:50:34;95147.81;;;7.50;64.33
85462;BME280;75865;42.672;23.360;2024-03-08T03:53:03;95146.28;;;7.49;63.72
85462;BME280;75865;42.672;23.360;2024-03-08T03:55:30;95150.84;;;7.52;63.92
85462;BME280;75865;42.672;23.360;2024-03-08T03:57:57;95150.44;;;7.50;63.88
85462;BME280;75865;42.672;23.360;2024-03-08T04:00:26;95154.22;;;7.49;64.25
85462;BME280;75865;42.672;23.360;2024-03-08T04:02:54;95153.06;;;7.47;63.90
85462;BME280;75865;42.672;23.360;2024-03-08T04:05:27;95161.38;;;7.49;63.92
85462;BME280;75865;42.672;23.360;2024-03-08T04:07:54;95160.97;;;7.47;63.29
85462;BME280;75865;42.672;23.360;2024-03-08T04:10:21;95166.25;;;7.47;63.23
85462;BME280;75865;42.672;23.360;2024-03-08T04:12:48;95163.63;;;7.47;63.56
85462;BME280;75865;42.672;23.360;2024-03-08T04:15:15;95158.34;;;7.43;64.20
85462;BME280;75865;42.672;23.360;2024-03-08T04:17:42;95165.53;;;7.50;63.86
85462;BME280;75865;42.672;23.360;2024-03-08T04:20:09;95171.56;;;7.50;63.87
85462;BME280;75865;42.672;23.360;2024-03-08T04:22:37;95174.19;;;7.47;62.87
85462;BME280;75865;42.672;23.360;2024-03-08T04:25:06;95175.31;;;7.46;63.51
85462;BME280;75865;42.672;23.360;2024-03-08T04:27:33;95168.50;;;7.45;64.17
85462;BME280;75865;42.672;23.360;2024-03-08T04:30:02;95174.91;;;7.44;64.11
85462;BME280;75865;42.672;23.360;2024-03-08T04:32:29;95186.22;;;7.44;64.33
85462;BME280;75865;42.672;23.360;2024-03-08T04:34:56;95190.03;;;7.47;64.75
85462;BME280;75865;42.672;23.360;2024-03-08T04:37:23;95187.75;;;7.45;64.26
85462;BME280;75865;42.672;23.360;2024-03-08T04:39:52;95190.75;;;7.44;63.85
85462;BME280;75865;42.672;23.360;2024-03-08T04:42:18;95186.25;;;7.48;64.26
85462;BME280;75865;42.672;23.360;2024-03-08T04:44:45;95191.53;;;7.48;64.25
85462;BME280;75865;42.672;23.360;2024-03-08T04:47:12;95184.75;;;7.47;64.54
85462;BME280;75865;42.672;23.360;2024-03-08T04:49:39;95190.78;;;7.47;64.61
85462;BME280;75865;42.672;23.360;2024-03-08T04:52:06;95189.66;;;7.48;64.37
85462;BME280;75865;42.672;23.360;2024-03-08T04:54:33;95185.91;;;7.49;65.14
85462;BME280;75865;42.672;23.360;2024-03-08T04:57:01;95195.72;;;7.52;64.49
85462;BME280;75865;42.672;23.360;2024-03-08T04:59:32;95199.13;;;7.53;64.89
85462;BME280;75865;42.672;23.360;2024-03-08T05:01:59;95199.88;;;7.53;65.12
85462;BME280;75865;42.672;23.360;2024-03-08T05:04:26;95202.16;;;7.55;64.64
85462;BME280;75865;42.672;23.360;2024-03-08T05:06:53;95201.78;;;7.53;64.28
85462;BME280;75865;42.672;23.360;2024-03-08T05:09:20;95204.03;;;7.51;64.68
85462;BME280;75865;42.672;23.360;2024-03-08T05:11:47;95206.66;;;7.51;64.80
85462;BME280;75865;42.672;23.360;2024-03-08T05:14:14;95202.47;;;7.46;64.62
85462;BME280;75865;42.672;23.360;2024-03-08T05:16:47;95215.31;;;7.48;64.72
85462;BME280;75865;42.672;23.360;2024-03-08T05:19:18;95217.56;;;7.46;64.56
85462;BME280;75865;42.672;23.360;2024-03-08T05:21:49;95219.44;;;7.45;65.06
85462;BME280;75865;42.672;23.360;2024-03-08T05:24:17;95222.13;;;7.49;65.27
85462;BME280;75865;42.672;23.360;2024-03-08T05:26:45;95229.25;;;7.45;65.56
85462;BME280;75865;42.672;23.360;2024-03-08T05:29:13;95230.72;;;7.39;65.13
85462;BME280;75865;42.672;23.360;2024-03-08T05:31:51;95238.25;;;7.37;65.26
85462;BME280;75865;42.672;23.360;2024-03-08T05:34:22;95245.03;;;7.34;65.70
85462;BME280;75865;42.672;23.360;2024-03-08T05:36:49;95241.63;;;7.34;66.54
85462;BME280;75865;42.672;23.360;2024-03-08T05:39:18;95242.75;;;7.33;67.15
85462;BME280;75865;42.672;23.360;2024-03-08T05:41:46;95248.03;;;7.33;67.28
85462;BME280;75865;42.672;23.360;2024-03-08T05:44:13;95250.31;;;7.34;67.38
85462;BME280;75865;42.672;23.360;2024-03-08T05:46:40;95260.47;;;7.32;67.03
85462;BME280;75865;42.672;23.360;2024-03-08T05:49:07;95257.47;;;7.34;67.04
85462;BME280;75865;42.672;23.360;2024-03-08T05:51:38;95261.63;;;7.35;67.04
85462;BME280;75865;42.672;23.360;2024-03-08T05:54:07;95266.47;;;7.25;67.48
85462;BME280;75865;42.672;23.360;2024-03-08T05:56:40;95271.75;;;7.25;67.32
85462;BME280;75865;42.672;23.360;2024-03-08T05:59:09;95275.88;;;7.23;68.08
85462;BME280;75865;42.672;23.360;2024-03-08T06:01:36;95286.38;;;7.16;67.43
85462;BME280;75865;42.672;23.360;2024-03-08T06:04:03;95284.31;;;6.99;67.06
85462;BME280;75865;42.672;23.360;2024-03-08T06:06:30;95282.69;;;6.83;67.91
85462;BME280;75865;42.672;23.360;2024-03-08T06:08:57;95290.63;;;6.87;68.25
85462;BME280;75865;42.672;23.360;2024-03-08T06:11:25;95277.78;;;6.82;68.10
85462;BME280;75865;42.672;23.360;2024-03-08T06:13:58;95295.84;;;6.80;67.78
85462;BME280;75865;42.672;23.360;2024-03-08T06:16:27;95296.47;;;6.66;68.26
85462;BME280;75865;42.672;23.360;2024-03-08T06:18:57;95300.22;;;6.65;68.59
85462;BME280;75865;42.672;23.360;2024-03-08T06:21:24;95289.31;;;6.67;69.30
85462;BME280;75865;42.672;23.360;2024-03-08T06:23:54;95295.03;;;6.76;69.11
85462;BME280;75865;42.672;23.360;2024-03-08T06:26:24;95302.66;;;6.81;69.11
85462;BME280;75865;42.672;23.360;2024-03-08T06:28:56;95299.66;;;6.86;68.63
85462;BME280;75865;42.672;23.360;2024-03-08T06:31:23;95305.38;;;6.92;68.39
85462;BME280;75865;42.672;23.360;2024-03-08T06:33:50;95312.53;;;6.91;67.96
85462;BME280;75865;42.672;23.360;2024-03-08T06:36:17;95311.78;;;6.91;68.10
85462;BME280;75865;42.672;23.360;2024-03-08T06:38:51;95308.06;;;6.95;68.20
85462;BME280;75865;42.672;23.360;2024-03-08T06:41:18;95306.19;;;6.99;67.23
85462;BME280;75865;42.672;23.360;2024-03-08T06:43:46;95317.13;;;6.98;66.98
85462;BME280;75865;42.672;23.360;2024-03-08T06:46:16;95314.16;;;7.03;66.73
85462;BME280;75865;42.672;23.360;2024-03-08T06:48:43;95311.94;;;7.08;66.25
85462;BME280;75865;42.672;23.360;2024-03-08T06:51:12;95315.81;;;7.18;65.40
85462;BME280;75865;42.672;23.360;2024-03-08T06:53:41;95315.09;;;7.24;64.36
85462;BME280;75865;42.672;23.360;2024-03-08T06:56:08;95316.63;;;7.25;63.45
85462;BME280;75865;42.672;23.360;2024-03-08T06:58:35;95322.19;;;7.13;63.86
85462;BME280;75865;42.672;23.360;2024-03-08T07:01:02;95322.94;;;7.14;64.31
85462;BME280;75865;42.672;23.360;2024-03-08T07:03:34;95313.19;;;7.21;64.95
85462;BME280;75865;42.672;23.360;2024-03-08T07:06:01;95319.34;;;7.36;64.60
85462;BME280;75865;42.672;23.360;2024-03-08T07:08:30;95324.31;;;7.45;64.19
85462;BME280;75865;42.672;23.360;2024-03-08T07:10:57;95319.47;;;7.50;63.62
85462;BME280;75865;42.672;23.360;2024-03-08T07:13:25;95318.75;;;7.57;63.89
85462;BME280;75865;42.672;23.360;2024-03-08T07:15:53;95329.03;;;7.69;64.11
85462;BME280;75865;42.672;23.360;2024-03-08T07:18:21;95329.09;;;7.76;63.54
85462;BME280;75865;42.672;23.360;2024-03-08T07:20:49;95330.66;;;7.84;62.66
85462;BME280;75865;42.672;23.360;2024-03-08T07:23:18;95319.28;;;7.80;61.57
85462;BME280;75865;42.672;23.360;2024-03-08T07:26:04;95331.03;;;7.86;61.94
85462;BME280;75865;42.672;23.360;2024-03-08T07:28:31;95337.09;;;7.87;61.79
85462;BME280;75865;42.672;23.360;2024-03-08T07:30:58;95334.47;;;7.90;62.31
85462;BME280;75865;42.672;23.360;2024-03-08T07:33:48;95330.00;;;8.02;62.26
85462;BME280;75865;42.672;23.360;2024-03-08T07:36:17;95342.91;;;8.10;62.48
85462;BME280;75865;42.672;23.360;2024-03-08T07:38:44;95344.06;;;8.20;62.19
85462;BME280;75865;42.672;23.360;2024-03-08T07:41:15;95327.09;;;8.21;61.26
85462;BME280;75865;42.672;23.360;2024-03-08T07:43:41;95333.56;;;8.30;60.61
85462;BME280;75865;42.672;23.360;2024-03-08T07:46:09;95333.59;;;8.34;61.10
85462;BME280;75865;42.672;23.360;2024-03-08T07:48:36;95343.47;;;8.44;60.81
85462;BME280;75865;42.672;23.360;2024-03-08T07:51:03;95337.44;;;8.51;60.86
85462;BME280;75865;42.672;23.360;2024-03-08T07:53:30;95340.91;;;8.58;60.83
85462;BME280;75865;42.672;23.360;2024-03-08T07:55:57;95340.50;;;8.63;61.13
85462;BME280;75865;42.672;23.360;2024-03-08T07:58:24;95340.16;;;8.68;60.74
85462;BME280;75865;42.672;23.360;2024-03-08T08:00:51;95340.19;;;8.72;60.77
85462;BME280;75865;42.672;23.360;2024-03-08T08:03:17;95341.72;;;8.73;59.90
85462;BME280;75865;42.672;23.360;2024-03-08T08:05:47;95338.66;;;8.75;59.89
85462;BME280;75865;42.672;23.360;2024-03-08T08:08:15;95333.41;;;8.82;59.26
85462;BME280;75865;42.672;23.360;2024-03-08T08:10:42;95337.19;;;8.88;59.43
85462;BME280;75865;42.672;23.360;2024-03-08T08:13:09;95340.63;;;8.95;59.09
85462;BME280;75865;42.672;23.360;2024-03-08T08:15:36;95340.22;;;8.97;57.93
85462;BME280;75865;42.672;23.360;2024-03-08T08:18:03;95337.22;;;9.02;58.10
85462;BME280;75865;42.672;23.360;2024-03-08T08:20:33;95335.34;;;9.10;58.07
85462;BME280;75865;42.672;23.360;2024-03-08T08:22:59;95328.19;;;9.17;58.01
85462;BME280;75865;42.672;23.360;2024-03-08T08:25:26;95333.88;;;9.33;57.30
85462;BME280;75865;42.672;23.360;2024-03-08T08:27:53;95333.13;;;9.47;57.14
85462;BME280;75865;42.672;23.360;2024-03-08T08:30:20;95337.28;;;9.62;56.64
85462;BME280;75865;42.672;23.360;2024-03-08T08:32:47;95332.75;;;9.70;56.08
85462;BME280;75865;42.672;23.360;2024-03-08T08:35:15;95343.72;;;9.86;56.10
85462;BME280;75865;42.672;23.360;2024-03-08T08:37:42;95338.78;;;10.02;55.73
85462;BME280;75865;42.672;23.360;2024-03-08T08:40:11;95335.34;;;10.23;55.81
85462;BME280;75865;42.672;23.360;2024-03-08T08:42:42;95339.84;;;10.40;55.33
85462;BME280;75865;42.672;23.360;2024-03-08T08:45:09;95338.28;;;10.57;54.51
85462;BME280;75865;42.672;23.360;2024-03-08T08:47:43;95331.72;;;10.76;53.80
85462;BME280;75865;42.672;23.360;2024-03-08T08:50:12;95330.91;;;10.97;53.27
85462;BME280;75865;42.672;23.360;2024-03-08T08:52:40;95329.28;;;11.10;51.70
85462;BME280;75865;42.672;23.360;2024-03-08T08:55:07;95329.56;;;11.26;51.90
85462;BME280;75865;42.672;23.360;2024-03-08T08:57:34;95329.47;;;11.44;51.63
85462;BME280;75865;42.672;23.360;2024-03-08T09:00:02;95337.28;;;11.62;51.46
85462;BME280;75865;42.672;23.360;2024-03-08T09:02:34;95333.00;;;11.75;50.41
85462;BME280;75865;42.672;23.360;2024-03-08T09:05:01;95327.22;;;11.87;50.22
85462;BME280;75865;42.672;23.360;2024-03-08T09:07:29;95325.94;;;12.02;48.63
85462;BME280;75865;42.672;23.360;2024-03-08T09:09:56;95330.78;;;12.14;49.89
85462;BME280;75865;42.672;23.360;2024-03-08T09:12:25;95325.16;;;12.39;48.68
85462;BME280;75865;42.672;23.360;2024-03-08T09:14:52;95323.38;;;12.63;47.79
85462;BME280;75865;42.672;23.360;2024-03-08T09:17:19;95325.31;;;12.89;46.86
85462;BME280;75865;42.672;23.360;2024-03-08T09:19:49;95322.22;;;13.25;47.18
85462;BME280;75865;42.672;23.360;2024-03-08T09:22:16;95320.06;;;13.66;46.29
85462;BME280;75865;42.672;23.360;2024-03-08T09:24:45;95324.22;;;14.14;45.44
85462;BME280;75865;42.672;23.360;2024-03-08T09:27:12;95317.34;;;14.56;44.98
85462;BME280;75865;42.672;23.360;2024-03-08T09:29:40;95320.97;;;14.86;43.85
85462;BME280;75865;42.672;23.360;2024-03-08T09:32:07;95314.53;;;14.99;42.75
85462;BME280;75865;42.672;23.360;2024-03-08T09:34:34;95317.44;;;14.89;42.29
85462;BME280;75865;42.672;23.360;2024-03-08T09:37:04;95314.22;;;14.77;42.12
85462;BME280;75865;42.672;23.360;2024-03-08T09:39:31;95320.09;;;14.72;42.54
85462;BME280;75865;42.672;23.360;2024-03-08T09:42:01;95317.75;;;14.74;43.28
85462;BME280;75865;42.672;23.360;2024-03-08T09:44:28;95313.81;;;14.79;42.80
85462;BME280;75865;42.672;23.360;2024-03-08T09:46:58;95320.97;;;15.22;42.69
85462;BME280;75865;42.672;23.360;2024-03-08T09:49:25;95317.50;;;15.57;42.38
85462;BME280;75865;42.672;23.360;2024-03-08T09:51:52;95329.50;;;15.81;40.53
85462;BME280;75865;42.672;23.360;2024-03-08T09:54:20;95330.47;;;16.49;40.37
85462;BME280;75865;42.672;23.360;2024-03-08T09:56:51;95323.75;;;17.11;38.12
85462;BME280;75865;42.672;23.360;2024-03-08T09:59:18;95326.16;;;17.22;37.57
85462;BME280;75865;42.672;23.360;2024-03-08T10:01:54;95327.09;;;17.15;36.60
85462;BME280;75865;42.672;23.360;2024-03-08T10:04:25;95323.13;;;17.07;37.02
85462;BME280;75865;42.672;23.360;2024-03-08T10:06:55;95329.59;;;17.22;36.70
85462;BME280;75865;42.672;23.360;2024-03-08T10:09:25;95324.97;;;18.08;35.63
85462;BME280;75865;42.672;23.360;2024-03-08T10:11:57;95328.44;;;18.87;34.47
85462;BME280;75865;42.672;23.360;2024-03-08T10:14:25;95327.13;;;19.62;33.80
85462;BME280;75865;42.672;23.360;2024-03-08T10:16:53;95326.81;;;20.37;33.30
85462;BME280;75865;42.672;23.360;2024-03-08T10:19:20;95334.28;;;20.69;31.99
85462;BME280;75865;42.672;23.360;2024-03-08T10:21:50;95325.59;;;20.74;31.46
85462;BME280;75865;42.672;23.360;2024-03-08T10:24:20;95331.38;;;21.09;30.68
85462;BME280;75865;42.672;23.360;2024-03-08T10:26:46;95327.84;;;21.36;30.53
85462;BME280;75865;42.672;23.360;2024-03-08T10:29:14;95328.13;;;21.38;29.98
85462;BME280;75865;42.672;23.360;2024-03-08T10:31:44;95327.44;;;21.29;29.66
85462;BME280;75865;42.672;23.360;2024-03-08T10:34:13;95317.34;;;21.38;30.06
85462;BME280;75865;42.672;23.360;2024-03-08T10:36:41;95327.66;;;22.29;29.94
85462;BME280;75865;42.672;23.360;2024-03-08T10:39:21;95313.38;;;22.82;27.11
85462;BME280;75865;42.672;23.360;2024-03-08T10:41:58;95317.09;;;22.70;27.27
85462;BME280;75865;42.672;23.360;2024-03-08T10:47:04;95314.91;;;22.06;29.79
85462;BME280;75865;42.672;23.360;2024-03-08T10:52:21;95303.19;;;21.10;28.97
85462;BME280;75865;42.672;23.360;2024-03-08T10:54:49;95304.16;;;20.80;29.62
85462;BME280;75865;42.672;23.360;2024-03-08T10:57:18;95307.47;;;20.75;29.91
85462;BME280;75865;42.672;23.360;2024-03-08T10:59:47;95303.03;;;21.05;29.61
85462;BME280;75865;42.672;23.360;2024-03-08T11:02:17;95302.09;;;21.26;29.46
85462;BME280;75865;42.672;23.360;2024-03-08T11:04:48;95295.22;;;21.49;29.22
85462;BME280;75865;42.672;23.360;2024-03-08T11:07:16;95292.13;;;21.41;28.56
85462;BME280;75865;42.672;23.360;2024-03-08T11:09:49;95288.59;;;21.17;29.04
85462;BME280;75865;42.672;23.360;2024-03-08T11:12:27;95280.13;;;21.00;28.98
85462;BME280;75865;42.672;23.360;2024-03-08T11:15:00;95281.41;;;20.63;29.59
85462;BME280;75865;42.672;23.360;2024-03-08T11:19:58;95275.88;;;19.93;30.16
85462;BME280;75865;42.672;23.360;2024-03-08T11:22:29;95272.72;;;19.76;30.49
85462;BME280;75865;42.672;23.360;2024-03-08T11:25:04;95280.63;;;19.71;30.45
85462;BME280;75865;42.672;23.360;2024-03-08T11:27:36;95277.59;;;19.60;30.52
85462;BME280;75865;42.672;23.360;2024-03-08T11:30:07;95273.34;;;20.17;30.11
85462;BME280;75865;42.672;23.360;2024-03-08T11:32:45;95273.97;;;21.00;29.72
85462;BME280;75865;42.672;23.360;2024-03-08T11:35:22;95270.53;;;22.13;27.95
85462;BME280;75865;42.672;23.360;2024-03-08T11:37:52;95274.81;;;23.02;27.21
85462;BME280;75865;42.672;23.360;2024-03-08T11:40:19;95270.19;;;23.52;26.21
85462;BME280;75865;42.672;23.360;2024-03-08T11:42:47;95269.94;;;23.21;25.30
85462;BME280;75865;42.672;23.360;2024-03-08T11:45:15;95260.94;;;22.80;26.13
85462;BME280;75865;42.672;23.360;2024-03-08T11:47:44;95269.78;;;22.51;26.17
85462;BME280;75865;42.672;23.360;2024-03-08T11:50:17;95264.59;;;22.23;26.68
85462;BME280;75865;42.672;23.360;2024-03-08T11:52:46;95257.38;;;21.82;26.11
85462;BME280;75865;42.672;23.360;2024-03-08T11:55:13;95252.25;;;21.60;25.88
85462;BME280;75865;42.672;23.360;2024-03-08T11:57:40;95254.94;;;21.84;26.48
85462;BME280;75865;42.672;23.360;2024-03-08T12:00:15;95249.22;;;21.91;26.66
85462;BME280;75865;42.672;23.360;2024-03-08T12:03:06;95252.38;;;22.13;25.74
85462;BME280;75865;42.672;23.360;2024-03-08T12:05:33;95250.06;;;21.97;26.25
85462;BME280;75865;42.672;23.360;2024-03-08T12:08:03;95255.53;;;21.88;26.50
85462;BME280;75865;42.672;23.360;2024-03-08T12:10:33;95245.78;;;21.67;26.51
85462;BME280;75865;42.672;23.360;2024-03-08T12:13:02;95250.13;;;21.40;26.57
85462;BME280;75865;42.672;23.360;2024-03-08T12:15:37;95244.94;;;20.85;26.88
85462;BME280;75865;42.672;23.360;2024-03-08T12:18:06;95255.72;;;20.85;27.59
85462;BME280;75865;42.672;23.360;2024-03-08T12:20:34;95257.06;;;21.32;27.59
85462;BME280;75865;42.672;23.360;2024-03-08T12:23:00;95250.88;;;22.12;27.30
85462;BME280;75865;42.672;23.360;2024-03-08T12:25:30;95250.84;;;22.95;25.59
85462;BME280;75865;42.672;23.360;2024-03-08T12:28:10;95253.53;;;23.59;25.44
85462;BME280;75865;42.672;23.360;2024-03-08T12:30:57;95253.19;;;24.59;23.61
85462;BME280;75865;42.672;23.360;2024-03-08T12:33:26;95249.56;;;24.41;23.63
85462;BME280;75865;42.672;23.360;2024-03-08T12:35:54;95241.25;;;24.04;23.48
85462;BME280;75865;42.672;23.360;2024-03-08T12:38:22;95243.22;;;23.63;23.69
85462;BME280;75865;42.672;23.360;2024-03-08T12:40:58;95240.09;;;23.50;24.74
85462;BME280;75865;42.672;23.360;2024-03-08T12:43:25;95234.00;;;23.75;24.52
85462;BME280;75865;42.672;23.360;2024-03-08T12:45:52;95221.97;;;23.56;24.09
85462;BME280;75865;42.672;23.360;2024-03-08T12:48:21;95231.72;;;23.33;24.24
85462;BME280;75865;42.672;23.360;2024-03-08T12:50:47;95234.13;;;22.96;24.35
85462;BME280;75865;42.672;23.360;2024-03-08T12:53:14;95225.84;;;22.85;25.56
85462;BME280;75865;42.672;23.360;2024-03-08T12:55:41;95230.34;;;23.23;25.12
85462;BME280;75865;42.672;23.360;2024-03-08T12:58:09;95229.94;;;23.86;24.60
85462;BME280;75865;42.672;23.360;2024-03-08T13:00:36;95230.25;;;24.13;23.43
85462;BME280;75865;42.672;23.360;2024-03-08T13:03:03;95233.06;;;24.45;23.57
85462;BME280;75865;42.672;23.360;2024-03-08T13:05:33;95232.72;;;24.89;22.99
85462;BME280;75865;42.672;23.360;2024-03-08T13:07:59;95235.28;;;24.98;22.63
85462;BME280;75865;42.672;23.360;2024-03-08T13:10:26;95236.63;;;25.14;22.51
85462;BME280;75865;42.672;23.360;2024-03-08T13:12:53;95230.66;;;25.47;22.47